sensor_id;sensor_type;location;lat;lon;timestamp;pressure;altitude;pressure_sealevel;temperature;humidity
57050;BME280;42935;50.966;16.992;2023-05-02T00:03:30;101241.35;;;9.32;100.00
57050;BME280;42935;50.966;16.992;2023-05-02T00:06:52;101248.77;;;9.34;100.00
57050;BME280;42935;50.966;16.992;2023-05-02T00:10:17;101236.16;;;9.16;100.00
57050;BME280;42935;50.966;16.992;2023-05-02T00:13:37;101240.60;;;9.17;100.00
57050;BME280;42935;50.966;16.992;2023-05-02T00:16:55;101230.47;;;9.13;100.00
57050;BME280;42935;50.966;16.992;2023-05-02T00:20:16;101235.28;;;9.16;100.00
57050;BME280;42935;50.966;16.992;2023-05-02T00:23:33;101226.36;;;9.22;100.00
57050;BME280;42935;50.966;16.992;2023-05-02T00:26:49;101233.99;;;9.14;100.00
57050;BME280;42935;50.966;16.992;2023-05-02T00:30:14;101235.82;;;9.22;100.00
57050;BME280;42935;50.966;16.992;2023-05-02T00:33:35;101229.13;;;9.25;100.00
57050;BME280;42935;50.966;16.992;2023-05-02T00:36:56;101228.30;;;9.14;100.00
57050;BME280;42935;50.966;16.992;2023-05-02T00:40:24;101226.30;;;9.18;100.00
57050;BME280;42935;50.966;16.992;2023-05-02T00:43:44;101227.82;;;9.21;100.00
57050;BME280;42935;50.966;16.992;2023-05-02T00:47:01;101218.47;;;9.18;100.00
57050;BME280;42935;50.966;16.992;2023-05-02T00:50:17;101221.30;;;9.17;100.00
57050;BME280;42935;50.966;16.992;2023-05-02T00:53:39;101217.19;;;9.15;100.00
57050;BME280;42935;50.966;16.992;2023-05-02T00:57:01;101225.84;;;9.14;100.00
57050;BME280;42935;50.966;16.992;2023-05-02T01:00:26;101220.71;;;9.04;100.00
57050;BME280;42935;50.966;16.992;2023-05-02T01:10:54;101223.74;;;9.06;100.00
57050;BME280;42935;50.966;16.992;2023-05-02T01:14:53;101228.45;;;8.98;100.00
57050;BME280;42935;50.966;16.992;2023-05-02T01:18:17;101223.32;;;8.98;100.00
57050;BME280;42935;50.966;16.992;2023-05-02T01:21:44;101237.61;;;8.79;100.00
57050;BME280;42935;50.966;16.992;2023-05-02T01:25:23;101237.24;;;8.85;100.00
57050;BME280;42935;50.966;16.992;2023-05-02T01:32:16;101226.68;;;8.88;100.00
57050;BME280;42935;50.966;16.992;2023-05-02T01:35:42;101231.80;;;8.96;100.00
57050;BME280;42935;50.966;16.992;2023-05-02T01:39:06;101248.87;;;9.06;100.00
57050;BME280;42935;50.966;16.992;2023-05-02T01:42:29;101244.31;;;8.86;100.00
57050;BME280;42935;50.966;16.992;2023-05-02T01:45:51;101247.60;;;9.01;100.00
57050;BME280;42935;50.966;16.992;2023-05-02T01:49:09;101246.62;;;9.00;100.00
57050;BME280;42935;50.966;16.992;2023-05-02T01:52:36;101245.97;;;9.04;100.00
57050;BME280;42935;50.966;16.992;2023-05-02T01:56:00;101244.89;;;9.10;100.00
57050;BME280;42935;50.966;16.992;2023-05-02T01:59:25;101241.44;;;8.84;100.00
57050;BME280;42935;50.966;16.992;2023-05-02T02:02:52;101210.21;;;8.79;100.00
57050;BME280;42935;50.966;16.992;2023-05-02T02:06:18;101242.48;;;8.92;100.00
57050;BME280;42935;50.966;16.992;2023-05-02T02:09:47;101253.02;;;8.96;100.00
57050;BME280;42935;50.966;16.992;2023-05-02T02:13:17;101254.64;;;9.15;100.00
57050;BME280;42935;50.966;16.992;2023-05-02T02:16:47;101254.33;;;9.18;100.00
57050;BME280;42935;50.966;16.992;2023-05-02T02:20:16;101262.61;;;9.42;100.00
57050;BME280;42935;50.966;16.992;2023-05-02T02:23:38;101259.06;;;9.11;100.00
57050;BME280;42935;50.966;16.992;2023-05-02T02:27:02;101267.52;;;9.05;100.00
57050;BME280;42935;50.966;16.992;2023-05-02T02:30:22;101272.44;;;8.93;100.00
57050;BME280;42935;50.966;16.992;2023-05-02T02:33:43;101278.29;;;8.95;100.00
57050;BME280;42935;50.966;16.992;2023-05-02T02:37:14;101281.74;;;8.84;100.00
57050;BME280;42935;50.966;16.992;2023-05-02T02:41:11;101282.19;;;8.90;100.00
57050;BME280;42935;50.966;16.992;2023-05-02T02:48:47;101309.15;;;9.01;100.00
57050;BME280;42935;50.966;16.992;2023-05-02T02:52:13;101315.63;;;9.04;100.00
57050;BME280;42935;50.966;16.992;2023-05-02T02:59:13;101322.51;;;9.49;100.00
57050;BME280;42935;50.966;16.992;2023-05-02T03:02:35;101315.40;;;9.63;100.00
57050;BME280;42935;50.966;16.992;2023-05-02T03:05:56;101326.20;;;10.10;100.00
57050;BME280;42935;50.966;16.992;2023-05-02T03:09:24;101318.08;;;10.08;100.00
57050;BME280;42935;50.966;16.992;2023-05-02T03:12:48;101322.25;;;10.44;100.00
57050;BME280;42935;50.966;16.992;2023-05-02T03:19:46;101315.49;;;11.06;94.45
57050;BME280;42935;50.966;16.992;2023-05-02T03:23:07;101323.19;;;11.32;92.23
57050;BME280;42935;50.966;16.992;2023-05-02T03:26:31;101334.78;;;11.55;91.32
57050;BME280;42935;50.966;16.992;2023-05-02T03:29:47;101333.24;;;11.54;91.47
57050;BME280;42935;50.966;16.992;2023-05-02T03:33:03;101342.14;;;11.45;94.71
57050;BME280;42935;50.966;16.992;2023-05-02T03:36:26;101338.98;;;11.47;94.84
57050;BME280;42935;50.966;16.992;2023-05-02T03:39:46;101334.92;;;11.53;95.80
57050;BME280;42935;50.966;16.992;2023-05-02T03:43:06;101354.16;;;11.73;93.98
57050;BME280;42935;50.966;16.992;2023-05-02T03:46:23;101358.88;;;11.77;93.39
57050;BME280;42935;50.966;16.992;2023-05-02T03:49:43;101360.31;;;11.71;94.15
57050;BME280;42935;50.966;16.992;2023-05-02T03:53:05;101364.06;;;11.69;94.25
57050;BME280;42935;50.966;16.992;2023-05-02T03:56:24;101371.12;;;11.66;94.93
57050;BME280;42935;50.966;16.992;2023-05-02T03:59:48;101359.83;;;11.57;94.03
57050;BME280;42935;50.966;16.992;2023-05-02T04:03:06;101364.30;;;11.59;96.26
57050;BME280;42935;50.966;16.992;2023-05-02T04:06:26;101386.11;;;11.61;97.45
57050;BME280;42935;50.966;16.992;2023-05-02T04:09:46;101393.83;;;11.55;100.00
57050;BME280;42935;50.966;16.992;2023-05-02T04:13:10;101394.91;;;11.44;100.00
57050;BME280;42935;50.966;16.992;2023-05-02T04:16:30;101380.84;;;11.18;100.00
57050;BME280;42935;50.966;16.992;2023-05-02T04:19:51;101411.29;;;11.21;100.00
57050;BME280;42935;50.966;16.992;2023-05-02T04:23:15;101418.38;;;11.17;100.00
57050;BME280;42935;50.966;16.992;2023-05-02T04:26:31;101422.98;;;11.10;100.00
57050;BME280;42935;50.966;16.992;2023-05-02T04:30:21;101427.62;;;11.06;100.00
57050;BME280;42935;50.966;16.992;2023-05-02T04:33:39;101432.91;;;10.97;100.00
57050;BME280;42935;50.966;16.992;2023-05-02T04:37:03;101448.09;;;10.90;100.00
57050;BME280;42935;50.966;16.992;2023-05-02T04:40:24;101446.49;;;10.81;100.00
57050;BME280;42935;50.966;16.992;2023-05-02T04:43:48;101447.29;;;10.75;100.00
57050;BME280;42935;50.966;16.992;2023-05-02T04:47:36;101412.55;;;10.39;100.00
57050;BME280;42935;50.966;16.992;2023-05-02T04:50:56;101468.15;;;10.65;100.00
57050;BME280;42935;50.966;16.992;2023-05-02T04:54:16;101473.91;;;10.61;100.00
57050;BME280;42935;50.966;16.992;2023-05-02T04:57:34;101470.48;;;10.59;100.00
57050;BME280;42935;50.966;16.992;2023-05-02T05:00:53;101472.82;;;10.56;100.00
57050;BME280;42935;50.966;16.992;2023-05-02T05:04:13;101470.75;;;10.57;100.00
57050;BME280;42935;50.966;16.992;2023-05-02T05:07:30;101468.64;;;10.47;100.00
57050;BME280;42935;50.966;16.992;2023-05-02T05:10:51;101479.85;;;10.50;100.00
57050;BME280;42935;50.966;16.992;2023-05-02T05:14:19;101479.77;;;10.55;100.00
57050;BME280;42935;50.966;16.992;2023-05-02T05:17:37;101486.29;;;10.55;100.00
57050;BME280;42935;50.966;16.992;2023-05-02T05:20:55;101478.75;;;10.62;100.00
57050;BME280;42935;50.966;16.992;2023-05-02T05:24:20;101482.02;;;10.68;100.00
57050;BME280;42935;50.966;16.992;2023-05-02T05:28:10;101487.49;;;10.66;100.00
57050;BME280;42935;50.966;16.992;2023-05-02T05:31:34;101493.03;;;10.69;100.00
57050;BME280;42935;50.966;16.992;2023-05-02T05:34:52;101494.02;;;10.74;100.00
57050;BME280;42935;50.966;16.992;2023-05-02T05:38:12;101504.05;;;10.90;100.00
57050;BME280;42935;50.966;16.992;2023-05-02T05:41:32;101491.59;;;10.97;100.00
57050;BME280;42935;50.966;16.992;2023-05-02T05:44:50;101496.95;;;11.34;100.00
57050;BME280;42935;50.966;16.992;2023-05-02T05:48:11;101490.55;;;11.41;100.00
57050;BME280;42935;50.966;16.992;2023-05-02T05:51:31;101498.55;;;11.42;100.00
57050;BME280;42935;50.966;16.992;2023-05-02T05:54:55;101500.95;;;11.64;100.00
57050;BME280;42935;50.966;16.992;2023-05-02T05:58:11;101499.48;;;11.83;100.00
57050;BME280;42935;50.966;16.992;2023-05-02T06:02:06;101505.88;;;11.90;100.00
57050;BME280;42935;50.966;16.992;2023-05-02T06:05:26;101510.08;;;12.00;100.00
57050;BME280;42935;50.966;16.992;2023-05-02T06:08:46;101518.61;;;12.19;100.00
57050;BME280;42935;50.966;16.992;2023-05-02T06:12:03;101531.04;;;12.11;100.00
57050;BME280;42935;50.966;16.992;2023-05-02T06:15:26;101540.63;;;11.99;100.00
57050;BME280;42935;50.966;16.992;2023-05-02T06:18:48;101532.21;;;11.89;100.00
57050;BME280;42935;50.966;16.992;2023-05-02T06:22:10;101541.71;;;12.02;100.00
57050;BME280;42935;50.966;16.992;2023-05-02T06:25:31;101549.12;;;11.96;100.00
57050;BME280;42935;50.966;16.992;2023-05-02T06:28:54;101537.99;;;11.90;100.00
57050;BME280;42935;50.966;16.992;2023-05-02T06:32:11;101552.92;;;11.96;100.00
57050;BME280;42935;50.966;16.992;2023-05-02T06:35:31;101556.13;;;11.94;100.00
57050;BME280;42935;50.966;16.992;2023-05-02T06:38:57;101557.40;;;11.98;100.00
57050;BME280;42935;50.966;16.992;2023-05-02T06:42:14;101567.19;;;12.12;100.00
57050;BME280;42935;50.966;16.992;2023-05-02T06:45:38;101567.25;;;12.22;100.00
57050;BME280;42935;50.966;16.992;2023-05-02T06:49:00;101560.07;;;12.22;100.00
57050;BME280;42935;50.966;16.992;2023-05-02T06:52:25;101571.05;;;12.34;100.00
57050;BME280;42935;50.966;16.992;2023-05-02T06:56:16;101568.57;;;12.38;100.00
57050;BME280;42935;50.966;16.992;2023-05-02T06:59:35;101583.60;;;12.42;100.00
57050;BME280;42935;50.966;16.992;2023-05-02T07:02:55;101587.13;;;12.47;100.00
57050;BME280;42935;50.966;16.992;2023-05-02T07:06:20;101594.18;;;12.51;100.00
57050;BME280;42935;50.966;16.992;2023-05-02T07:09:47;101593.78;;;12.60;100.00
57050;BME280;42935;50.966;16.992;2023-05-02T07:13:36;101600.74;;;12.77;100.00
57050;BME280;42935;50.966;16.992;2023-05-02T07:16:55;101602.72;;;12.84;100.00
57050;BME280;42935;50.966;16.992;2023-05-02T07:20:15;101606.25;;;12.83;100.00
57050;BME280;42935;50.966;16.992;2023-05-02T07:23:35;101608.23;;;12.91;100.00
57050;BME280;42935;50.966;16.992;2023-05-02T07:26:51;101604.56;;;13.19;100.00
57050;BME280;42935;50.966;16.992;2023-05-02T07:30:15;101615.63;;;13.31;100.00
57050;BME280;42935;50.966;16.992;2023-05-02T07:33:36;101618.00;;;13.27;100.00
57050;BME280;42935;50.966;16.992;2023-05-02T07:36:57;101610.93;;;13.32;100.00
57050;BME280;42935;50.966;16.992;2023-05-02T07:40:18;101614.19;;;13.44;100.00
57050;BME280;42935;50.966;16.992;2023-05-02T07:43:35;101612.23;;;13.54;100.00
57050;BME280;42935;50.966;16.992;2023-05-02T07:46:55;101609.59;;;13.55;100.00
57050;BME280;42935;50.966;16.992;2023-05-02T07:50:11;101620.27;;;13.62;100.00
57050;BME280;42935;50.966;16.992;2023-05-02T07:53:31;101622.12;;;13.81;100.00
57050;BME280;42935;50.966;16.992;2023-05-02T07:56:52;101622.77;;;13.89;100.00
57050;BME280;42935;50.966;16.992;2023-05-02T08:00:20;101627.71;;;13.81;100.00
57050;BME280;42935;50.966;16.992;2023-05-02T08:03:42;101633.82;;;13.86;100.00
57050;BME280;42935;50.966;16.992;2023-05-02T08:07:03;101636.84;;;14.06;100.00
57050;BME280;42935;50.966;16.992;2023-05-02T08:10:23;101637.28;;;14.15;100.00
57050;BME280;42935;50.966;16.992;2023-05-02T08:13:44;101626.13;;;14.04;100.00
57050;BME280;42935;50.966;16.992;2023-05-02T08:17:35;101639.64;;;14.37;100.00
57050;BME280;42935;50.966;16.992;2023-05-02T08:20:56;101641.85;;;14.44;100.00
57050;BME280;42935;50.966;16.992;2023-05-02T08:24:47;101634.66;;;14.52;100.00
57050;BME280;42935;50.966;16.992;2023-05-02T08:28:05;101642.84;;;14.59;100.00
57050;BME280;42935;50.966;16.992;2023-05-02T08:31:21;101646.41;;;14.64;100.00
57050;BME280;42935;50.966;16.992;2023-05-02T08:34:36;101651.69;;;14.85;100.00
57050;BME280;42935;50.966;16.992;2023-05-02T08:37:57;101650.58;;;14.81;100.00
57050;BME280;42935;50.966;16.992;2023-05-02T08:41:48;101661.67;;;15.04;100.00
57050;BME280;42935;50.966;16.992;2023-05-02T08:45:08;101669.09;;;15.06;100.00
57050;BME280;42935;50.966;16.992;2023-05-02T08:48:31;101671.60;;;14.88;100.00
57050;BME280;42935;50.966;16.992;2023-05-02T08:51:49;101669.44;;;14.97;100.00
57050;BME280;42935;50.966;16.992;2023-05-02T08:55:15;101678.34;;;14.99;100.00
57050;BME280;42935;50.966;16.992;2023-05-02T08:58:38;101682.43;;;15.09;100.00
57050;BME280;42935;50.966;16.992;2023-05-02T09:02:11;101685.01;;;15.21;100.00
57050;BME280;42935;50.966;16.992;2023-05-02T09:05:40;101688.43;;;15.19;100.00
57050;BME280;42935;50.966;16.992;2023-05-02T09:09:33;101691.94;;;15.51;100.00
57050;BME280;42935;50.966;16.992;2023-05-02T09:12:53;101688.52;;;15.57;100.00
57050;BME280;42935;50.966;16.992;2023-05-02T09:16:15;101691.68;;;15.64;100.00
57050;BME280;42935;50.966;16.992;2023-05-02T09:20:05;101701.24;;;15.75;100.00
57050;BME280;42935;50.966;16.992;2023-05-02T09:23:37;101704.80;;;15.80;100.00
57050;BME280;42935;50.966;16.992;2023-05-02T09:28:15;101701.42;;;15.73;100.00
57050;BME280;42935;50.966;16.992;2023-05-02T09:31:36;101714.77;;;15.40;100.00
57050;BME280;42935;50.966;16.992;2023-05-02T09:35:05;101711.66;;;15.80;100.00
57050;BME280;42935;50.966;16.992;2023-05-02T09:38:36;101716.70;;;16.04;100.00
57050;BME280;42935;50.966;16.992;2023-05-02T09:41:57;101705.99;;;16.01;98.39
57050;BME280;42935;50.966;16.992;2023-05-02T09:45:24;101731.93;;;16.33;100.00
57050;BME280;42935;50.966;16.992;2023-05-02T09:48:56;101727.85;;;16.58;89.00
57050;BME280;42935;50.966;16.992;2023-05-02T09:52:18;101735.05;;;16.12;79.65
57050;BME280;42935;50.966;16.992;2023-05-02T09:55:41;101735.92;;;16.23;83.51
57050;BME280;42935;50.966;16.992;2023-05-02T09:59:12;101735.55;;;16.88;87.27
57050;BME280;42935;50.966;16.992;2023-05-02T10:02:33;101737.54;;;17.09;86.98
57050;BME280;42935;50.966;16.992;2023-05-02T10:05:54;101733.92;;;17.13;86.44
57050;BME280;42935;50.966;16.992;2023-05-02T10:09:39;101740.00;;;16.99;79.02
57050;BME280;42935;50.966;16.992;2023-05-02T10:13:32;101732.93;;;17.26;93.90
57050;BME280;42935;50.966;16.992;2023-05-02T10:16:59;101737.99;;;17.26;93.45
57050;BME280;42935;50.966;16.992;2023-05-02T10:20:28;101722.70;;;17.57;90.26
57050;BME280;42935;50.966;16.992;2023-05-02T10:23:50;101733.70;;;17.41;86.60
57050;BME280;42935;50.966;16.992;2023-05-02T10:27:12;101726.14;;;17.36;91.45
57050;BME280;42935;50.966;16.992;2023-05-02T10:30:33;101737.70;;;17.49;87.60
57050;BME280;42935;50.966;16.992;2023-05-02T10:33:50;101736.68;;;17.49;89.14
57050;BME280;42935;50.966;16.992;2023-05-02T10:37:40;101741.05;;;17.51;86.56
57050;BME280;42935;50.966;16.992;2023-05-02T10:41:08;101748.52;;;17.27;82.76
57050;BME280;42935;50.966;16.992;2023-05-02T10:44:35;101744.38;;;17.54;85.39
57050;BME280;42935;50.966;16.992;2023-05-02T10:48:29;101739.64;;;17.36;81.49
57050;BME280;42935;50.966;16.992;2023-05-02T10:51:49;101747.66;;;17.71;82.65
57050;BME280;42935;50.966;16.992;2023-05-02T10:58:46;101739.73;;;17.94;78.23
57050;BME280;42935;50.966;16.992;2023-05-02T11:06:18;101743.56;;;17.82;78.11
57050;BME280;42935;50.966;16.992;2023-05-02T11:09:42;101740.21;;;17.64;77.47
57050;BME280;42935;50.966;16.992;2023-05-02T11:13:06;101752.98;;;17.62;76.99
57050;BME280;42935;50.966;16.992;2023-05-02T11:27:42;101768.12;;;17.53;79.35
57050;BME280;42935;50.966;16.992;2023-05-02T11:34:41;101773.75;;;17.62;80.21
57050;BME280;42935;50.966;16.992;2023-05-02T11:38:10;101773.20;;;17.84;76.04
57050;BME280;42935;50.966;16.992;2023-05-02T11:41:38;101777.59;;;17.97;76.09
57050;BME280;42935;50.966;16.992;2023-05-02T11:44:59;101777.67;;;17.95;78.07
57050;BME280;42935;50.966;16.992;2023-05-02T11:48:18;101780.38;;;17.68;73.65
57050;BME280;42935;50.966;16.992;2023-05-02T11:52:08;101775.89;;;18.14;73.19
57050;BME280;42935;50.966;16.992;2023-05-02T11:55:29;101778.55;;;18.15;73.98
57050;BME280;42935;50.966;16.992;2023-05-02T11:59:02;101775.06;;;18.37;73.54
57050;BME280;42935;50.966;16.992;2023-05-02T12:05:57;101770.56;;;18.60;68.68
57050;BME280;42935;50.966;16.992;2023-05-02T12:09:56;101774.90;;;18.33;68.38
57050;BME280;42935;50.966;16.992;2023-05-02T12:13:18;101762.10;;;18.63;68.39
57050;BME280;42935;50.966;16.992;2023-05-02T12:16:40;101765.67;;;18.51;67.00
57050;BME280;42935;50.966;16.992;2023-05-02T12:19:59;101770.34;;;18.94;70.15
57050;BME280;42935;50.966;16.992;2023-05-02T12:24:34;101769.98;;;19.00;62.81
57050;BME280;42935;50.966;16.992;2023-05-02T12:28:02;101767.73;;;18.95;57.99
57050;BME280;42935;50.966;16.992;2023-05-02T12:31:23;101770.22;;;19.54;57.96
57050;BME280;42935;50.966;16.992;2023-05-02T12:34:46;101770.73;;;20.11;57.62
57050;BME280;42935;50.966;16.992;2023-05-02T12:38:17;101770.68;;;19.83;56.58
57050;BME280;42935;50.966;16.992;2023-05-02T12:41:38;101767.58;;;19.85;57.69
57050;BME280;42935;50.966;16.992;2023-05-02T12:45:04;101770.79;;;19.94;55.86
57050;BME280;42935;50.966;16.992;2023-05-02T12:48:30;101782.91;;;18.63;56.49
57050;BME280;42935;50.966;16.992;2023-05-02T12:55:44;101784.34;;;17.96;61.35
57050;BME280;42935;50.966;16.992;2023-05-02T12:59:11;101781.26;;;18.26;58.92
57050;BME280;42935;50.966;16.992;2023-05-02T13:02:38;101779.27;;;18.68;59.19
57050;BME280;42935;50.966;16.992;2023-05-02T13:05:56;101785.39;;;18.99;57.64
57050;BME280;42935;50.966;16.992;2023-05-02T13:09:17;101794.44;;;18.70;59.23
57050;BME280;42935;50.966;16.992;2023-05-02T13:12:39;101794.77;;;18.66;58.54
57050;BME280;42935;50.966;16.992;2023-05-02T13:16:00;101801.19;;;18.45;58.40
57050;BME280;42935;50.966;16.992;2023-05-02T13:19:49;101802.96;;;18.27;58.01
57050;BME280;42935;50.966;16.992;2023-05-02T13:23:10;101803.59;;;18.29;57.80
57050;BME280;42935;50.966;16.992;2023-05-02T13:26:31;101797.71;;;17.99;58.34
57050;BME280;42935;50.966;16.992;2023-05-02T13:32:02;101817.19;;;17.89;60.86
57050;BME280;42935;50.966;16.992;2023-05-02T13:35:23;101819.88;;;17.45;61.64
57050;BME280;42935;50.966;16.992;2023-05-02T13:38:40;101811.67;;;17.22;62.61
57050;BME280;42935;50.966;16.992;2023-05-02T14:06:30;101828.83;;;17.16;61.02
57050;BME280;42935;50.966;16.992;2023-05-02T14:11:07;101831.82;;;17.29;60.43
57050;BME280;42935;50.966;16.992;2023-05-02T14:14:46;101836.37;;;17.41;60.96
57050;BME280;42935;50.966;16.992;2023-05-02T14:18:25;101835.66;;;17.28;61.32
57050;BME280;42935;50.966;16.992;2023-05-02T14:22:43;101836.06;;;17.38;62.20
57050;BME280;42935;50.966;16.992;2023-05-02T14:26:25;101839.66;;;17.03;65.33
57050;BME280;42935;50.966;16.992;2023-05-02T14:30:43;101838.33;;;17.16;64.38
57050;BME280;42935;50.966;16.992;2023-05-02T14:34:22;101843.14;;;17.31;66.46
57050;BME280;42935;50.966;16.992;2023-05-02T14:38:03;101849.85;;;17.29;74.63
57050;BME280;42935;50.966;16.992;2023-05-02T14:42:21;101855.26;;;17.20;73.40
57050;BME280;42935;50.966;16.992;2023-05-02T14:46:38;101861.31;;;16.73;78.79
57050;BME280;42935;50.966;16.992;2023-05-02T14:51:07;101864.93;;;16.16;81.55
57050;BME280;42935;50.966;16.992;2023-05-02T14:55:14;101844.86;;;15.84;85.01
57050;BME280;42935;50.966;16.992;2023-05-02T14:58:34;101871.60;;;16.02;90.97
57050;BME280;42935;50.966;16.992;2023-05-02T15:01:54;101871.70;;;16.06;92.12
57050;BME280;42935;50.966;16.992;2023-05-02T15:05:21;101877.01;;;15.86;90.98
57050;BME280;42935;50.966;16.992;2023-05-02T15:09:11;101883.56;;;15.64;95.80
57050;BME280;42935;50.966;16.992;2023-05-02T15:12:31;101884.34;;;15.20;100.00
57050;BME280;42935;50.966;16.992;2023-05-02T15:15:49;101888.98;;;15.18;100.00
57050;BME280;42935;50.966;16.992;2023-05-02T15:19:13;101893.57;;;14.93;100.00
57050;BME280;42935;50.966;16.992;2023-05-02T15:22:31;101898.66;;;14.81;100.00
57050;BME280;42935;50.966;16.992;2023-05-02T15:25:51;101885.52;;;14.45;100.00
57050;BME280;42935;50.966;16.992;2023-05-02T15:29:13;101899.40;;;14.70;100.00
57050;BME280;42935;50.966;16.992;2023-05-02T15:32:33;101905.11;;;14.56;100.00
57050;BME280;42935;50.966;16.992;2023-05-02T15:35:58;101908.56;;;14.52;100.00
57050;BME280;42935;50.966;16.992;2023-05-02T15:39:18;101907.27;;;14.80;100.00
57050;BME280;42935;50.966;16.992;2023-05-02T15:43:21;101881.66;;;14.64;100.00
57050;BME280;42935;50.966;16.992;2023-05-02T15:46:46;101906.74;;;14.90;100.00
57050;BME280;42935;50.966;16.992;2023-05-02T15:50:09;101913.52;;;14.93;100.00
57050;BME280;42935;50.966;16.992;2023-05-02T15:53:27;101905.82;;;14.90;100.00
57050;BME280;42935;50.966;16.992;2023-05-02T15:57:21;101904.93;;;14.77;100.00
57050;BME280;42935;50.966;16.992;2023-05-02T16:00:44;101913.05;;;14.62;100.00
57050;BME280;42935;50.966;16.992;2023-05-02T16:04:09;101905.80;;;14.42;100.00
57050;BME280;42935;50.966;16.992;2023-05-02T16:07:35;101914.40;;;14.00;100.00
57050;BME280;42935;50.966;16.992;2023-05-02T16:10:54;101922.82;;;13.76;100.00
57050;BME280;42935;50.966;16.992;2023-05-02T16:14:19;101924.11;;;13.88;100.00
57050;BME280;42935;50.966;16.992;2023-05-02T16:17:49;101922.63;;;13.76;100.00
57050;BME280;42935;50.966;16.992;2023-05-02T16:21:41;101926.09;;;13.60;100.00
57050;BME280;42935;50.966;16.992;2023-05-02T16:25:01;101923.41;;;13.50;100.00
57050;BME280;42935;50.966;16.992;2023-05-02T16:28:25;101930.00;;;13.42;100.00
57050;BME280;42935;50.966;16.992;2023-05-02T16:31:46;101930.83;;;13.51;100.00
57050;BME280;42935;50.966;16.992;2023-05-02T16:35:10;101935.71;;;13.52;100.00
57050;BME280;42935;50.966;16.992;2023-05-02T16:38:30;101937.38;;;13.53;100.00
57050;BME280;42935;50.966;16.992;2023-05-02T16:42:18;101939.19;;;13.52;100.00
57050;BME280;42935;50.966;16.992;2023-05-02T16:45:38;101941.63;;;13.51;100.00
57050;BME280;42935;50.966;16.992;2023-05-02T16:48:59;101940.12;;;13.55;100.00
57050;BME280;42935;50.966;16.992;2023-05-02T16:52:54;101937.71;;;13.44;100.00
57050;BME280;42935;50.966;16.992;2023-05-02T16:56:18;101928.52;;;13.49;100.00
57050;BME280;42935;50.966;16.992;2023-05-02T16:59:49;101946.79;;;13.61;100.00
57050;BME280;42935;50.966;16.992;2023-05-02T17:03:21;101954.48;;;13.44;100.00
57050;BME280;42935;50.966;16.992;2023-05-02T17:06:41;101954.59;;;13.38;100.00
57050;BME280;42935;50.966;16.992;2023-05-02T17:10:05;101953.42;;;13.40;100.00
57050;BME280;42935;50.966;16.992;2023-05-02T17:13:54;101957.13;;;13.39;100.00
57050;BME280;42935;50.966;16.992;2023-05-02T17:17:15;101953.99;;;13.47;100.00
57050;BME280;42935;50.966;16.992;2023-05-02T17:20:41;101964.19;;;13.38;100.00
57050;BME280;42935;50.966;16.992;2023-05-02T17:24:01;101973.34;;;13.49;100.00
57050;BME280;42935;50.966;16.992;2023-05-02T17:31:20;101968.73;;;13.40;100.00
57050;BME280;42935;50.966;16.992;2023-05-02T17:34:42;101973.41;;;13.39;100.00
57050;BME280;42935;50.966;16.992;2023-05-02T17:38:41;101981.99;;;13.54;100.00
57050;BME280;42935;50.966;16.992;2023-05-02T17:42:41;101983.02;;;13.44;100.00
57050;BME280;42935;50.966;16.992;2023-05-02T17:46:07;101982.66;;;13.58;100.00
57050;BME280;42935;50.966;16.992;2023-05-02T17:49:57;101990.29;;;13.74;100.00
57050;BME280;42935;50.966;16.992;2023-05-02T17:53:21;101989.77;;;13.90;100.00
57050;BME280;42935;50.966;16.992;2023-05-02T17:56:37;102004.07;;;14.05;100.00
57050;BME280;42935;50.966;16.992;2023-05-02T17:59:57;102009.53;;;14.02;100.00
57050;BME280;42935;50.966;16.992;2023-05-02T18:03:18;102013.72;;;14.02;100.00
57050;BME280;42935;50.966;16.992;2023-05-02T18:06:38;102011.45;;;14.02;100.00
57050;BME280;42935;50.966;16.992;2023-05-02T18:10:02;102020.41;;;13.95;100.00
57050;BME280;42935;50.966;16.992;2023-05-02T18:13:25;102016.73;;;13.95;100.00
57050;BME280;42935;50.966;16.992;2023-05-02T18:16:46;102011.39;;;13.70;96.68
57050;BME280;42935;50.966;16.992;2023-05-02T18:20:10;102024.82;;;13.97;98.99
57050;BME280;42935;50.966;16.992;2023-05-02T18:24:04;102029.11;;;13.92;96.83
57050;BME280;42935;50.966;16.992;2023-05-02T18:27:32;102035.31;;;13.83;94.61
57050;BME280;42935;50.966;16.992;2023-05-02T18:31:00;102045.54;;;13.85;96.46
57050;BME280;42935;50.966;16.992;2023-05-02T18:34:32;102037.25;;;13.73;97.31
57050;BME280;42935;50.966;16.992;2023-05-02T18:37:56;102041.48;;;13.85;98.25
57050;BME280;42935;50.966;16.992;2023-05-02T18:41:21;102050.84;;;13.89;97.28
57050;BME280;42935;50.966;16.992;2023-05-02T18:44:45;102048.31;;;13.85;98.23
57050;BME280;42935;50.966;16.992;2023-05-02T18:48:07;102058.31;;;13.77;99.85
57050;BME280;42935;50.966;16.992;2023-05-02T18:51:27;102062.69;;;13.77;98.21
57050;BME280;42935;50.966;16.992;2023-05-02T18:54:52;102056.36;;;13.73;97.60
57050;BME280;42935;50.966;16.992;2023-05-02T18:58:21;102075.55;;;13.72;97.19
57050;BME280;42935;50.966;16.992;2023-05-02T19:01:41;102073.98;;;13.54;98.96
57050;BME280;42935;50.966;16.992;2023-05-02T19:05:08;102086.93;;;13.64;98.82
57050;BME280;42935;50.966;16.992;2023-05-02T19:08:33;102090.41;;;13.56;98.40